Time;durP1;ratioP1;P1;durP2;ratioP2;P2;SDS_P1;SDS_P2;PMS_P1;PMS_P2;Temp;Humidity;BMP_temperature;BMP_pressure;BME280_temperature;BME280_humidity;BME280_pressure;Samples;Min_cycle;Max_cycle;Signal;HPM_P1;HPM_P2
2022/08/27 00:01:22;;;;;;;;;;;;;;;14.92;100.00;101858.88;5096072;28;20415;-32
2022/08/27 00:03:49;;;;;;;;;;;;;;;14.88;100.00;101854.16;5114718;28;19927;-33
2022/08/27 00:06:18;;;;;;;;;;;;;;;14.87;100.00;101847.69;5114509;28;20335;-33
2022/08/27 00:08:47;;;;;;;;;;;;;;;14.83;100.00;101844.66;5113921;28;19923;-37
2022/08/27 00:11:15;;;;;;;;;;;;;;;14.80;100.00;101847.22;5114414;28;19931;-40
2022/08/27 00:13:44;;;;;;;;;;;;;;;14.77;100.00;101840.28;5114616;28;19957;-33
2022/08/27 00:16:13;;;;;;;;;;;;;;;14.75;100.00;101839.75;5113586;28;20365;-33
2022/08/27 00:18:41;;;;;;;;;;;;;;;14.72;100.00;101834.72;5114267;28;20030;-39
2022/08/27 00:21:14;;;;;;;;;;;;;;;14.69;100.00;101840.09;5114592;28;19928;-33
2022/08/27 00:23:42;;;;;;;;;;;;;;;14.67;100.00;101843.22;5113712;28;19924;-31
2022/08/27 00:26:10;;;;;;;;;;;;;;;14.65;100.00;101831.44;5110609;28;19932;-31
2022/08/27 00:28:38;;;;;;;;;;;;;;;14.64;100.00;101829.78;5114417;28;19928;-30
2022/08/27 00:31:07;;;;;;;;;;;;;;;14.61;100.00;101833.19;5112996;28;19923;-35
2022/08/27 00:33:38;;;;;;;;;;;;;;;14.59;100.00;101831.84;5110792;28;19923;-32
2022/08/27 00:36:07;;;;;;;;;;;;;;;14.57;100.00;101832.13;5113399;28;20251;-43
2022/08/27 00:38:36;;;;;;;;;;;;;;;14.58;100.00;101833.81;5113872;28;20392;-31
2022/08/27 00:41:04;;;;;;;;;;;;;;;14.56;100.00;101830.47;5114457;28;19929;-41
2022/08/27 00:43:43;;;;;;;;;;;;;;;14.54;100.00;101829.09;5112962;28;19924;-32
2022/08/27 00:46:17;;;;;;;;;;;;;;;14.54;100.00;101835.56;5114229;28;19928;-32
2022/08/27 00:48:45;;;;;;;;;;;;;;;14.53;100.00;101822.66;5112368;28;19924;-32
2022/08/27 00:51:13;;;;;;;;;;;;;;;14.52;100.00;101828.56;5113037;28;19924;-37
2022/08/27 00:53:41;;;;;;;;;;;;;;;14.52;100.00;101836.97;5113640;28;19923;-42
2022/08/27 00:56:10;;;;;;;;;;;;;;;14.52;100.00;101836.97;5106499;28;20411;-33
2022/08/27 00:58:39;;;;;;;;;;;;;;;14.54;100.00;101834.72;5112968;28;19928;-36
2022/08/27 01:01:08;;;;;;;;;;;;;;;14.57;100.00;101834.13;5113358;28;19930;-34
2022/08/27 01:03:37;;;;;;;;;;;;;;;14.59;100.00;101829.84;5113541;28;19931;-42
2022/08/27 01:06:09;;;;;;;;;;;;;;;14.63;100.00;101827.25;5112565;28;19931;-32
2022/08/27 01:08:39;;;;;;;;;;;;;;;14.68;100.00;101832.81;5113246;28;19924;-35
2022/08/27 01:11:07;;;;;;;;;;;;;;;14.72;100.00;101837.53;5112528;28;20403;-31
2022/08/27 01:13:42;;;;;;;;;;;;;;;14.79;100.00;101837.97;5113403;28;19935;-37
2022/08/27 01:16:30;;;;;;;;;;;;;;;14.85;100.00;101835.94;5113340;28;20273;-33
2022/08/27 01:19:00;;;;;;;;;;;;;;;14.94;100.00;101836.91;5112337;28;19928;-36
2022/08/27 01:21:30;;;;;;;;;;;;;;;15.02;100.00;101832.56;5113380;28;19979;-41
2022/08/27 01:24:02;;;;;;;;;;;;;;;15.11;100.00;101839.19;5113344;28;19935;-39
2022/08/27 01:26:31;;;;;;;;;;;;;;;15.19;100.00;101838.47;5112455;28;19924;-38
2022/08/27 01:28:59;;;;;;;;;;;;;;;15.27;100.00;101837.78;5113076;28;20323;-32
2022/08/27 01:31:28;;;;;;;;;;;;;;;15.33;100.00;101836.56;5112664;28;19930;-39
2022/08/27 01:33:58;;;;;;;;;;;;;;;15.42;100.00;101831.06;5112466;28;19924;-33
2022/08/27 01:36:26;;;;;;;;;;;;;;;15.48;100.00;101839.09;5113164;28;19969;-35
2022/08/27 01:38:53;;;;;;;;;;;;;;;15.54;100.00;101848.28;5112955;28;19934;-35
2022/08/27 01:41:21;;;;;;;;;;;;;;;15.59;100.00;101834.13;5112221;28;20300;-32
2022/08/27 01:43:51;;;;;;;;;;;;;;;15.63;100.00;101840.00;5112784;28;19932;-35
2022/08/27 01:46:20;;;;;;;;;;;;;;;15.64;100.00;101853.75;5112271;28;20419;-36
2022/08/27 01:48:48;;;;;;;;;;;;;;;15.64;100.00;101841.66;5111947;28;20338;-38
2022/08/27 01:51:16;;;;;;;;;;;;;;;15.62;100.00;101844.78;5109362;28;19952;-37
2022/08/27 01:53:43;;;;;;;;;;;;;;;15.60;100.00;101843.41;5112008;28;20384;-39
2022/08/27 01:56:11;;;;;;;;;;;;;;;15.56;100.00;101839.56;5112504;28;19924;-37
2022/08/27 01:58:38;;;;;;;;;;;;;;;15.52;100.00;101848.59;5112599;28;19927;-32
2022/08/27 02:01:09;;;;;;;;;;;;;;;15.49;100.00;101840.78;5111673;28;20380;-33
2022/08/27 02:03:38;;;;;;;;;;;;;;;15.45;100.00;101839.72;5112870;28;19947;-40
2022/08/27 02:06:08;;;;;;;;;;;;;;;15.42;100.00;101837.50;5112652;28;19931;-41
2022/08/27 02:08:35;;;;;;;;;;;;;;;15.38;100.00;101833.66;5104947;28;19924;-32
2022/08/27 02:11:03;;;;;;;;;;;;;;;15.36;100.00;101835.94;5112372;28;19978;-34
2022/08/27 02:13:30;;;;;;;;;;;;;;;15.38;100.00;101838.47;5115112;28;19927;-36
2022/08/27 02:15:58;;;;;;;;;;;;;;;15.39;100.00;101835.31;5116151;28;19952;-32
2022/08/27 02:18:28;;;;;;;;;;;;;;;15.40;100.00;101833.34;5116723;28;19924;-35
2022/08/27 02:20:55;;;;;;;;;;;;;;;15.43;100.00;101829.91;5116602;28;19932;-32
2022/08/27 02:23:23;;;;;;;;;;;;;;;15.46;100.00;101835.75;5115749;28;19942;-33
2022/08/27 02:25:50;;;;;;;;;;;;;;;15.50;100.00;101825.56;5116458;28;20296;-36
2022/08/27 02:28:18;;;;;;;;;;;;;;;15.55;100.00;101830.28;5116219;28;19927;-32
2022/08/27 02:30:46;;;;;;;;;;;;;;;15.61;100.00;101831.03;5116978;28;19963;-34
2022/08/27 02:33:14;;;;;;;;;;;;;;;15.65;100.00;101827.28;5116190;28;20390;-32
2022/08/27 02:35:43;;;;;;;;;;;;;;;15.69;100.00;101828.34;5115594;28;19932;-38
2022/08/27 02:38:11;;;;;;;;;;;;;;;15.73;100.00;101823.78;5116188;28;19924;-33
2022/08/27 02:40:39;;;;;;;;;;;;;;;15.76;100.00;101816.69;5113042;28;20007;-36
2022/08/27 02:43:06;;;;;;;;;;;;;;;15.78;100.00;101818.06;5115737;28;20476;-35
2022/08/27 02:45:35;;;;;;;;;;;;;;;15.83;100.00;101822.72;5116111;28;19928;-36
2022/08/27 02:48:03;;;;;;;;;;;;;;;15.86;100.00;101827.72;5116278;28;19924;-38
2022/08/27 02:50:31;;;;;;;;;;;;;;;15.87;100.00;101822.94;5115218;28;20280;-36
2022/08/27 02:53:01;;;;;;;;;;;;;;;15.88;100.00;101824.59;5115989;28;19928;-32
2022/08/27 02:55:29;;;;;;;;;;;;;;;15.87;100.00;101826.59;5115984;28;19972;-32
2022/08/27 02:57:57;;;;;;;;;;;;;;;15.87;100.00;101818.16;5115185;28;19924;-39
2022/08/27 03:00:26;;;;;;;;;;;;;;;15.87;100.00;101825.75;5115900;28;19931;-36
2022/08/27 03:02:53;;;;;;;;;;;;;;;15.84;100.00;101822.41;5115944;28;20038;-41
2022/08/27 03:05:21;;;;;;;;;;;;;;;15.84;100.00;101821.56;5114856;28;19962;-34
2022/08/27 03:07:49;;;;;;;;;;;;;;;15.84;100.00;101825.22;5115813;28;19931;-32
2022/08/27 03:10:20;;;;;;;;;;;;;;;15.84;100.00;101819.59;5115723;28;19964;-33
2022/08/27 03:12:47;;;;;;;;;;;;;;;15.84;100.00;101821.56;5115290;28;19923;-32
2022/08/27 03:15:16;;;;;;;;;;;;;;;15.87;100.00;101818.16;5114896;28;19928;-35
2022/08/27 03:20:29;;;;;;;;;;;;;;;15.93;100.00;101816.91;5114079;28;19981;-35
2022/08/27 03:22:57;;;;;;;;;;;;;;;15.95;100.00;101820.25;5113940;28;19924;-36
2022/08/27 03:25:26;;;;;;;;;;;;;;;15.96;100.00;101819.09;5114062;28;19928;-36
2022/08/27 03:27:54;;;;;;;;;;;;;;;15.97;100.00;101811.50;5114747;28;19957;-40
2022/08/27 03:30:22;;;;;;;;;;;;;;;15.97;100.00;101817.97;5114708;28;19923;-33
2022/08/27 03:32:50;;;;;;;;;;;;;;;15.96;100.00;101807.00;5114205;28;19928;-32
2022/08/27 03:35:19;;;;;;;;;;;;;;;15.94;100.00;101815.75;5114725;28;19935;-32
2022/08/27 03:37:47;;;;;;;;;;;;;;;15.90;100.00;101809.09;5115261;28;19924;-35
2022/08/27 03:40:15;;;;;;;;;;;;;;;15.86;100.00;101810.84;5114470;28;19924;-34
2022/08/27 03:42:44;;;;;;;;;;;;;;;15.83;100.00;101819.91;5115007;28;19932;-39
2022/08/27 03:45:12;;;;;;;;;;;;;;;15.79;100.00;101816.88;5115496;28;20424;-33
2022/08/27 03:47:40;;;;;;;;;;;;;;;15.76;100.00;101811.06;5114237;28;19924;-43
2022/08/27 03:50:08;;;;;;;;;;;;;;;15.72;100.00;101807.19;5115277;28;19927;-34
2022/08/27 03:52:35;;;;;;;;;;;;;;;15.69;100.00;101811.47;5114770;28;20288;-32
2022/08/27 03:55:04;;;;;;;;;;;;;;;15.65;100.00;101816.03;5114239;28;19927;-37
2022/08/27 03:57:31;;;;;;;;;;;;;;;15.62;100.00;101815.81;5114794;28;20418;-32
2022/08/27 04:00:00;;;;;;;;;;;;;;;15.57;100.00;101813.94;5114119;28;19924;-38
2022/08/27 04:02:38;;;;;;;;;;;;;;;15.54;100.00;101819.31;5114948;28;19924;-37
2022/08/27 04:05:06;;;;;;;;;;;;;;;15.49;100.00;101821.06;5114790;28;20291;-38
2022/08/27 04:07:34;;;;;;;;;;;;;;;15.44;100.00;101818.34;5113944;28;19929;-41
2022/08/27 04:10:02;;;;;;;;;;;;;;;15.40;100.00;101825.72;5114203;28;19928;-42
2022/08/27 04:12:29;;;;;;;;;;;;;;;15.36;100.00;101818.25;5114757;28;19928;-40
2022/08/27 04:14:57;;;;;;;;;;;;;;;15.31;100.00;101819.16;5114030;28;19931;-37
2022/08/27 04:17:26;;;;;;;;;;;;;;;15.27;100.00;101808.81;5114374;28;19923;-43
2022/08/27 04:19:53;;;;;;;;;;;;;;;15.22;100.00;101812.56;5114438;28;19928;-33
2022/08/27 04:22:22;;;;;;;;;;;;;;;15.18;100.00;101817.16;5113516;28;19928;-38
2022/08/27 04:24:50;;;;;;;;;;;;;;;15.14;100.00;101822.53;5114448;28;20019;-34
2022/08/27 04:27:19;;;;;;;;;;;;;;;15.11;100.00;101820.34;5114472;28;19923;-34
2022/08/27 04:29:47;;;;;;;;;;;;;;;15.11;100.00;101827.94;5102387;28;19931;-34
2022/08/27 04:32:14;;;;;;;;;;;;;;;15.11;100.00;101823.16;5114118;28;20459;-33
2022/08/27 04:34:43;;;;;;;;;;;;;;;15.13;100.00;101820.03;5113680;28;19924;-32
2022/08/27 04:37:11;;;;;;;;;;;;;;;15.18;100.00;101821.94;5112933;28;19928;-36
2022/08/27 04:39:38;;;;;;;;;;;;;;;15.22;100.00;101823.81;5110356;28;20030;-34
2022/08/27 04:42:06;;;;;;;;;;;;;;;15.27;100.00;101818.09;5112587;28;19924;-28
2022/08/27 04:44:34;;;;;;;;;;;;;;;15.32;100.00;101818.00;5112669;28;19923;-34
2022/08/27 04:47:03;;;;;;;;;;;;;;;15.35;100.00;101819.38;5112788;28;19939;-39
2022/08/27 04:49:32;;;;;;;;;;;;;;;15.36;100.00;101819.06;5111783;28;19950;-36
2022/08/27 04:52:02;;;;;;;;;;;;;;;15.37;100.00;101820.75;5113041;28;19928;-32
2022/08/27 04:54:29;;;;;;;;;;;;;;;15.36;100.00;101826.69;5113622;28;20331;-33
2022/08/27 04:56:59;;;;;;;;;;;;;;;15.33;100.00;101825.31;5110612;28;19930;-41
2022/08/27 04:59:27;;;;;;;;;;;;;;;15.32;100.00;101834.88;5113816;28;19924;-32
2022/08/27 05:01:54;;;;;;;;;;;;;;;15.30;100.00;101823.09;5113325;28;19930;-36
2022/08/27 05:04:22;;;;;;;;;;;;;;;15.30;100.00;101836.34;5112637;28;19931;-36
2022/08/27 05:06:53;;;;;;;;;;;;;;;15.29;100.00;101832.69;5113733;28;19980;-41
2022/08/27 05:09:22;;;;;;;;;;;;;;;15.30;100.00;101837.16;5113415;28;20006;-34
2022/08/27 05:11:54;;;;;;;;;;;;;;;15.33;100.00;101836.56;5112682;28;19927;-32
2022/08/27 05:14:22;;;;;;;;;;;;;;;15.37;100.00;101836.78;5113182;28;19931;-40
2022/08/27 05:16:50;;;;;;;;;;;;;;;15.41;100.00;101841.47;5113200;28;19924;-37
2022/08/27 05:19:18;;;;;;;;;;;;;;;15.47;100.00;101837.44;5112308;28;19924;-32
2022/08/27 05:21:47;;;;;;;;;;;;;;;15.56;100.00;101842.38;5113252;28;20285;-39
2022/08/27 05:24:16;;;;;;;;;;;;;;;15.64;100.00;101836.03;5112260;28;20006;-41
2022/08/27 05:26:45;;;;;;;;;;;;;;;15.71;100.00;101836.47;5112528;28;19927;-32
2022/08/27 05:29:13;;;;;;;;;;;;;;;15.79;100.00;101832.91;5112654;28;19927;-40
2022/08/27 05:31:41;;;;;;;;;;;;;;;15.86;100.00;101836.19;5111320;28;19923;-33
2022/08/27 05:34:10;;;;;;;;;;;;;;;15.93;100.00;101832.97;5112860;28;19924;-32
2022/08/27 05:36:43;;;;;;;;;;;;;;;15.99;100.00;101840.97;5111680;28;20358;-45
2022/08/27 05:39:16;;;;;;;;;;;;;;;16.05;100.00;101839.72;5100726;28;20402;-34
2022/08/27 05:41:45;;;;;;;;;;;;;;;16.12;100.00;101839.31;5112655;28;19924;-33
2022/08/27 05:44:14;;;;;;;;;;;;;;;16.19;100.00;101843.38;5112761;28;19927;-32
2022/08/27 05:47:02;;;;;;;;;;;;;;;16.25;100.00;101844.13;5110896;28;20326;-34
2022/08/27 05:49:30;;;;;;;;;;;;;;;16.31;100.00;101836.41;5112371;28;19932;-33
2022/08/27 05:51:58;;;;;;;;;;;;;;;16.36;100.00;101841.94;5111697;28;19935;-33
2022/08/27 05:54:25;;;;;;;;;;;;;;;16.39;100.00;101842.13;5112535;28;19924;-37
2022/08/27 05:56:54;;;;;;;;;;;;;;;16.42;100.00;101840.66;5112499;28;19927;-34
2022/08/27 06:02:07;;;;;;;;;;;;;;;16.45;100.00;101835.22;5112163;28;19939;-39
2022/08/27 06:04:36;;;;;;;;;;;;;;;16.48;100.00;101836.59;5112610;28;19967;-31
2022/08/27 06:07:05;;;;;;;;;;;;;;;16.51;100.00;101833.13;5111277;28;19924;-39
2022/08/27 06:09:32;;;;;;;;;;;;;;;16.54;100.00;101838.16;5112749;28;19928;-31
2022/08/27 06:12:02;;;;;;;;;;;;;;;16.57;100.00;101834.72;5112585;28;19930;-33
2022/08/27 06:14:29;;;;;;;;;;;;;;;16.60;100.00;101836.88;5111201;28;19944;-40
2022/08/27 06:16:59;;;;;;;;;;;;;;;16.64;100.00;101839.91;5093876;28;19924;-35
2022/08/27 06:19:26;;;;;;;;;;;;;;;16.68;100.00;101836.16;5112633;28;19924;-32
2022/08/27 06:21:54;;;;;;;;;;;;;;;16.74;100.00;101846.19;5111246;28;19927;-30
2022/08/27 06:24:37;;;;;;;;;;;;;;;16.78;100.00;101850.03;5112347;28;19931;-35
2022/08/27 06:27:06;;;;;;;;;;;;;;;16.84;100.00;101848.75;5111943;28;20455;-34
2022/08/27 06:29:33;;;;;;;;;;;;;;;16.91;100.00;101853.13;5110754;28;20420;-35
2022/08/27 06:32:01;;;;;;;;;;;;;;;16.97;100.00;101857.50;5111396;28;20022;-32
2022/08/27 06:34:29;;;;;;;;;;;;;;;17.04;100.00;101857.88;5111733;28;19924;-40
2022/08/27 06:36:56;;;;;;;;;;;;;;;17.08;100.00;101854.09;5110849;28;19935;-39
2022/08/27 06:39:24;;;;;;;;;;;;;;;17.11;100.00;101856.28;5111746;28;20396;-32
2022/08/27 06:41:52;;;;;;;;;;;;;;;17.18;100.00;101853.03;5111313;28;19934;-33
2022/08/27 06:44:23;;;;;;;;;;;;;;;17.25;100.00;101855.38;5093344;28;19928;-33
2022/08/27 06:46:50;;;;;;;;;;;;;;;17.31;100.00;101857.78;5112142;28;19939;-41
2022/08/27 06:49:18;;;;;;;;;;;;;;;17.40;100.00;101852.19;5111290;28;20010;-37
2022/08/27 06:51:47;;;;;;;;;;;;;;;17.49;100.00;101858.72;5111359;28;20304;-35
2022/08/27 06:54:15;;;;;;;;;;;;;;;17.55;100.00;101863.09;5112044;28;20234;-32
2022/08/27 06:56:43;;;;;;;;;;;;;;;17.68;100.00;101861.38;5111184;28;19934;-34
2022/08/27 06:59:13;;;;;;;;;;;;;;;18.04;100.00;101864.88;5113429;28;19931;-36
2022/08/27 07:01:44;;;;;;;;;;;;;;;18.57;100.00;101861.94;5115717;28;19928;-33
2022/08/27 07:04:12;;;;;;;;;;;;;;;19.30;100.00;101865.00;5115086;28;19936;-37
2022/08/27 07:06:40;;;;;;;;;;;;;;;20.11;100.00;101870.69;5115447;28;20388;-33
2022/08/27 07:09:08;;;;;;;;;;;;;;;20.97;98.55;101860.88;5115271;28;19923;-40
2022/08/27 07:11:37;;;;;;;;;;;;;;;21.76;92.41;101861.84;5114998;28;20230;-35
2022/08/27 07:14:05;;;;;;;;;;;;;;;22.43;84.76;101857.69;5115407;28;19932;-42
2022/08/27 07:16:33;;;;;;;;;;;;;;;22.97;79.04;101866.81;5097025;28;19924;-34
2022/08/27 07:19:03;;;;;;;;;;;;;;;23.56;76.97;101864.16;5114933;28;20392;-41
2022/08/27 07:21:31;;;;;;;;;;;;;;;24.22;72.85;101862.66;5114773;28;20469;-33
2022/08/27 07:24:03;;;;;;;;;;;;;;;24.68;65.16;101863.84;5115104;28;20010;-34
2022/08/27 07:26:32;;;;;;;;;;;;;;;24.72;61.71;101868.44;5115565;28;20296;-33
2022/08/27 07:28:59;;;;;;;;;;;;;;;24.47;62.09;101872.72;5114982;28;19927;-36
2022/08/27 07:31:27;;;;;;;;;;;;;;;24.11;63.13;101878.66;5114764;28;19946;-42
2022/08/27 07:33:55;;;;;;;;;;;;;;;23.72;64.40;101871.91;5114683;28;20380;-39
2022/08/27 07:36:24;;;;;;;;;;;;;;;23.36;65.45;101876.53;5114873;28;19931;-33
2022/08/27 07:38:52;;;;;;;;;;;;;;;23.07;68.36;101874.00;5114276;28;19927;-37
2022/08/27 07:41:29;;;;;;;;;;;;;;;23.26;69.86;101874.19;5115172;28;19930;-33
2022/08/27 07:46:44;;;;;;;;;;;;;;;24.47;62.60;101878.41;5114489;28;19927;-32
2022/08/27 07:49:16;;;;;;;;;;;;;;;25.01;62.66;101872.81;5114288;28;19930;-33
2022/08/27 07:51:45;;;;;;;;;;;;;;;25.65;60.36;101874.22;5114348;28;19930;-39
2022/08/27 07:54:13;;;;;;;;;;;;;;;26.20;56.13;101880.56;5113481;28;19923;-32
2022/08/27 07:56:40;;;;;;;;;;;;;;;26.69;55.09;101882.66;5114063;28;19924;-35
2022/08/27 07:59:08;;;;;;;;;;;;;;;27.23;54.35;101878.56;5112988;28;19930;-33
2022/08/27 08:01:36;;;;;;;;;;;;;;;27.85;52.17;101891.25;5114315;28;19928;-37
2022/08/27 08:04:04;;;;;;;;;;;;;;;28.39;49.96;101898.38;5114879;28;19924;-34
2022/08/27 08:06:31;;;;;;;;;;;;;;;28.96;49.12;101898.88;5109598;28;19930;-34
2022/08/27 08:09:01;;;;;;;;;;;;;;;29.48;45.67;101886.03;5114652;28;20293;-40
2022/08/27 08:11:30;;;;;;;;;;;;;;;29.77;44.10;101890.66;5113316;28;19923;-39
2022/08/27 08:13:57;;;;;;;;;;;;;;;30.02;44.29;101892.78;5113336;28;19934;-38
2022/08/27 08:16:25;;;;;;;;;;;;;;;30.29;43.79;101890.38;5114671;28;19932;-37
2022/08/27 08:18:59;;;;;;;;;;;;;;;30.66;42.51;101887.13;5114352;28;20408;-36
2022/08/27 08:21:26;;;;;;;;;;;;;;;30.89;41.17;101892.44;5113470;28;19968;-38
2022/08/27 08:23:54;;;;;;;;;;;;;;;31.14;42.17;101899.03;5114134;28;20101;-35
2022/08/27 08:26:23;;;;;;;;;;;;;;;31.11;37.93;101897.78;5114156;28;19924;-33
2022/08/27 08:28:51;;;;;;;;;;;;;;;30.66;39.96;101904.41;5113655;28;19924;-33
2022/08/27 08:31:18;;;;;;;;;;;;;;;30.38;39.92;101893.66;5106865;28;20407;-33
2022/08/27 08:33:46;;;;;;;;;;;;;;;30.01;40.26;101899.78;5113554;28;19924;-33
2022/08/27 08:36:15;;;;;;;;;;;;;;;29.40;39.02;101907.34;5113064;28;20149;-34
2022/08/27 08:38:43;;;;;;;;;;;;;;;28.74;41.58;101915.09;5113673;28;19923;-35
2022/08/27 08:41:25;;;;;;;;;;;;;;;28.21;43.85;101915.44;5113287;28;20372;-43
2022/08/27 08:43:55;;;;;;;;;;;;;;;27.78;46.50;101917.78;5114048;28;20010;-32
2022/08/27 08:46:27;;;;;;;;;;;;;;;27.87;47.21;101910.94;5113577;28;19938;-39
2022/08/27 08:48:57;;;;;;;;;;;;;;;28.26;47.07;101914.25;5112963;28;19927;-34
2022/08/27 08:51:28;;;;;;;;;;;;;;;28.35;46.40;101924.19;5112836;28;19971;-34
2022/08/27 08:53:58;;;;;;;;;;;;;;;28.45;47.41;101911.97;5112859;28;19930;-36
2022/08/27 08:56:28;;;;;;;;;;;;;;;28.68;43.24;101923.25;5092731;28;19935;-44
2022/08/27 08:58:59;;;;;;;;;;;;;;;28.78;46.02;101921.66;5113297;28;19931;-38
2022/08/27 09:01:27;;;;;;;;;;;;;;;29.08;45.61;101925.22;5113290;28;20380;-43
2022/08/27 09:03:56;;;;;;;;;;;;;;;29.48;43.80;101923.41;5101761;28;19924;-33
2022/08/27 09:06:29;;;;;;;;;;;;;;;29.89;42.15;101923.16;5113648;28;19950;-34
2022/08/27 09:09:00;;;;;;;;;;;;;;;30.28;41.62;101918.34;5112672;28;19930;-33
2022/08/27 09:11:33;;;;;;;;;;;;;;;30.73;39.55;101910.19;5112502;28;20384;-43
2022/08/27 09:14:05;;;;;;;;;;;;;;;31.10;39.75;101913.41;5113245;28;20675;-36
2022/08/27 09:16:39;;;;;;;;;;;;;;;31.40;38.56;101912.09;5102825;28;19961;-40
2022/08/27 09:19:07;;;;;;;;;;;;;;;31.66;38.11;101917.41;5112693;28;20620;-39
2022/08/27 09:21:45;;;;;;;;;;;;;;;31.90;36.35;101920.59;5113059;28;19955;-37
2022/08/27 09:24:15;;;;;;;;;;;;;;;31.93;35.16;101925.53;5108472;28;19931;-42
2022/08/27 09:26:43;;;;;;;;;;;;;;;32.06;35.38;101909.34;5093526;28;19923;-41
2022/08/27 09:29:19;;;;;;;;;;;;;;;32.34;35.45;101919.91;5112093;28;19923;-35
2022/08/27 09:31:52;;;;;;;;;;;;;;;32.40;36.11;101921.91;5112180;28;20387;-39
2022/08/27 09:34:20;;;;;;;;;;;;;;;32.71;34.88;101920.03;5112407;28;19930;-41
2022/08/27 09:36:49;;;;;;;;;;;;;;;32.84;35.20;101923.22;5112796;28;20288;-36
2022/08/27 09:39:17;;;;;;;;;;;;;;;32.79;34.97;101920.78;5111521;28;19934;-40
2022/08/27 09:41:45;;;;;;;;;;;;;;;32.78;34.08;101917.06;5112699;28;19934;-38
2022/08/27 09:44:16;;;;;;;;;;;;;;;32.78;33.97;101931.53;5112623;28;19955;-34
2022/08/27 09:46:51;;;;;;;;;;;;;;;32.48;34.08;101914.84;5112154;28;19971;-34
2022/08/27 09:49:19;;;;;;;;;;;;;;;32.35;35.48;101918.69;5112234;28;20321;-41
2022/08/27 09:51:47;;;;;;;;;;;;;;;32.27;34.14;101929.44;5109776;28;20037;-37
2022/08/27 09:54:27;;;;;;;;;;;;;;;31.76;34.39;101924.38;5112612;28;19970;-40
2022/08/27 09:56:57;;;;;;;;;;;;;;;31.31;35.34;101927.00;5112230;28;19931;-34
2022/08/27 09:59:30;;;;;;;;;;;;;;;31.01;37.01;101926.59;5112068;28;20399;-34
2022/08/27 10:02:02;;;;;;;;;;;;;;;30.70;38.37;101923.34;5112346;28;20414;-37
2022/08/27 10:04:36;;;;;;;;;;;;;;;30.65;38.10;101918.00;5106448;28;19923;-36
2022/08/27 10:07:29;;;;;;;;;;;;;;;30.83;37.13;101921.69;5111921;28;19951;-40
2022/08/27 10:10:00;;;;;;;;;;;;;;;31.11;37.08;101917.97;5112459;28;19931;-36
2022/08/27 10:12:32;;;;;;;;;;;;;;;31.39;36.84;101919.13;5111812;28;19924;-38
2022/08/27 10:15:03;;;;;;;;;;;;;;;31.69;36.33;101918.63;5112422;28;19935;-39
2022/08/27 10:17:36;;;;;;;;;;;;;;;31.84;35.91;101915.25;5112463;28;19924;-36
2022/08/27 10:20:08;;;;;;;;;;;;;;;31.53;36.43;101910.44;5111514;28;19923;-40
2022/08/27 10:22:40;;;;;;;;;;;;;;;31.11;36.70;101914.25;5112331;28;19923;-37
2022/08/27 10:25:22;;;;;;;;;;;;;;;30.77;37.19;101911.00;5105466;28;19928;-38
2022/08/27 10:27:54;;;;;;;;;;;;;;;30.46;37.06;101907.66;5111667;28;20319;-42
2022/08/27 10:30:28;;;;;;;;;;;;;;;30.40;38.42;101902.72;5105777;28;19924;-39
2022/08/27 10:33:02;;;;;;;;;;;;;;;30.55;37.83;101909.31;5111919;28;19927;-39
2022/08/27 10:35:34;;;;;;;;;;;;;;;30.73;37.28;101899.47;5109582;28;19969;-37
2022/08/27 10:38:15;;;;;;;;;;;;;;;30.83;37.68;101900.69;5116409;28;20407;-43
2022/08/27 10:40:47;;;;;;;;;;;;;;;30.57;38.59;101906.91;5115253;28;19934;-38
2022/08/27 10:43:22;;;;;;;;;;;;;;;30.21;38.87;101895.28;5116247;28;19995;-37
2022/08/27 10:45:56;;;;;;;;;;;;;;;29.90;40.38;101898.91;5109357;28;19931;-33
2022/08/27 10:48:30;;;;;;;;;;;;;;;29.66;39.99;101904.19;5115278;28;19927;-35
2022/08/27 10:51:08;;;;;;;;;;;;;;;29.46;40.68;101905.75;5108994;28;19924;-41
2022/08/27 10:53:37;;;;;;;;;;;;;;;29.31;40.39;101910.56;5115908;28;20281;-37
2022/08/27 10:56:09;;;;;;;;;;;;;;;29.18;39.13;101902.69;5114817;28;19928;-37
2022/08/27 10:58:46;;;;;;;;;;;;;;;29.00;41.04;101914.88;5116234;28;20027;-44
2022/08/27 11:01:21;;;;;;;;;;;;;;;29.04;40.40;101910.00;5115820;28;20269;-35
2022/08/27 11:03:51;;;;;;;;;;;;;;;28.82;41.09;101911.06;5115010;28;19930;-35
2022/08/27 11:06:25;;;;;;;;;;;;;;;28.57;41.30;101915.78;5115821;28;19969;-41
2022/08/27 11:08:56;;;;;;;;;;;;;;;28.31;42.41;101916.78;5096986;28;19924;-35
2022/08/27 11:11:28;;;;;;;;;;;;;;;28.06;42.80;101925.91;5115638;28;19924;-33
2022/08/27 11:14:19;;;;;;;;;;;;;;;27.93;43.57;101923.72;5115930;28;19952;-38
2022/08/27 11:16:52;;;;;;;;;;;;;;;27.87;42.26;101925.28;5115222;28;19924;-37
2022/08/27 11:19:22;;;;;;;;;;;;;;;27.90;44.06;101924.50;5115736;28;20077;-39
2022/08/27 11:21:54;;;;;;;;;;;;;;;27.98;41.72;101929.09;5115351;28;20292;-40
2022/08/27 11:24:25;;;;;;;;;;;;;;;28.12;41.70;101926.41;5114770;28;19928;-42
2022/08/27 11:26:55;;;;;;;;;;;;;;;28.35;42.46;101924.19;5115548;28;20290;-36
2022/08/27 11:29:27;;;;;;;;;;;;;;;28.39;42.69;101921.34;5114964;28;19932;-35
2022/08/27 11:32:03;;;;;;;;;;;;;;;28.27;41.79;101924.50;5113944;28;19943;-36
2022/08/27 11:34:35;;;;;;;;;;;;;;;28.05;43.62;101930.00;5115516;28;19928;-41
2022/08/27 11:37:17;;;;;;;;;;;;;;;27.99;42.78;101919.25;5114729;28;20273;-42
2022/08/27 11:40:00;;;;;;;;;;;;;;;27.73;43.81;101923.91;5114746;28;19951;-39
2022/08/27 11:42:35;;;;;;;;;;;;;;;27.67;44.16;101919.72;5113618;28;19976;-36
2022/08/27 11:45:05;;;;;;;;;;;;;;;27.75;41.88;101921.47;5113190;28;19924;-41
2022/08/27 11:47:34;;;;;;;;;;;;;;;27.68;41.67;101915.63;5114642;28;19924;-38
2022/08/27 11:50:07;;;;;;;;;;;;;;;27.69;42.47;101910.72;5114407;28;19923;-36
2022/08/27 11:52:35;;;;;;;;;;;;;;;27.81;40.88;101913.31;5114667;28;19973;-41
2022/08/27 11:55:13;;;;;;;;;;;;;;;27.78;40.61;101923.53;5114530;28;19932;-35
2022/08/27 11:57:41;;;;;;;;;;;;;;;27.76;42.09;101914.53;5113403;28;20106;-35
2022/08/27 12:00:18;;;;;;;;;;;;;;;27.73;41.42;101923.06;5113614;28;19923;-40
2022/08/27 12:02:57;;;;;;;;;;;;;;;27.75;41.49;101917.78;5114618;28;19928;-38
2022/08/27 12:05:33;;;;;;;;;;;;;;;27.88;41.70;101918.31;5113941;28;20418;-33
2022/08/27 12:08:11;;;;;;;;;;;;;;;28.00;40.96;101920.91;5114413;28;19947;-35
2022/08/27 12:10:46;;;;;;;;;;;;;;;28.02;40.19;101918.47;5113700;28;19927;-35
2022/08/27 12:13:17;;;;;;;;;;;;;;;28.06;40.15;101922.22;5113533;28;20293;-35
2022/08/27 12:15:56;;;;;;;;;;;;;;;28.18;39.08;101913.31;5114600;28;19924;-35
2022/08/27 12:18:37;;;;;;;;;;;;;;;28.25;39.99;101922.03;5114131;28;19940;-43
2022/08/27 12:21:11;;;;;;;;;;;;;;;28.21;40.21;101921.16;5113519;28;19930;-33
2022/08/27 12:23:45;;;;;;;;;;;;;;;28.14;40.26;101923.97;5114292;28;19924;-40
2022/08/27 12:26:16;;;;;;;;;;;;;;;28.10;41.99;101911.59;5113779;28;19924;-34
2022/08/27 12:28:44;;;;;;;;;;;;;;;28.10;42.42;101923.91;5113791;28;20296;-35
2022/08/27 12:31:16;;;;;;;;;;;;;;;28.02;42.81;101924.22;5113878;28;19927;-43
2022/08/27 12:33:46;;;;;;;;;;;;;;;27.87;42.17;101916.69;5112949;28;20010;-40
2022/08/27 12:36:18;;;;;;;;;;;;;;;27.71;42.67;101926.34;5113478;28;20293;-39
2022/08/27 12:38:57;;;;;;;;;;;;;;;27.45;42.70;101929.22;5113910;28;20060;-37
2022/08/27 12:41:25;;;;;;;;;;;;;;;27.25;42.02;101925.69;5113428;28;19934;-36
2022/08/27 12:44:02;;;;;;;;;;;;;;;27.14;41.75;101924.72;5095188;28;20400;-36
2022/08/27 12:46:29;;;;;;;;;;;;;;;27.04;41.47;101913.91;5111948;28;19930;-35
2022/08/27 12:49:00;;;;;;;;;;;;;;;27.00;41.57;101921.63;5110682;28;19924;-30
2022/08/27 12:51:48;;;;;;;;;;;;;;;26.82;41.73;101918.44;5104045;28;19931;-31
2022/08/27 12:54:24;;;;;;;;;;;;;;;26.65;41.43;101922.69;5112216;28;20357;-32